sensor_id;sensor_type;location;lat;lon;timestamp;temperature;humidity
74081;SHT31;62438;52.228;6.864;2023-02-15T00:01:28;0.44;99.99
74081;SHT31;62438;52.228;6.864;2023-02-15T00:03:28;0.36;99.99
74081;SHT31;62438;52.228;6.864;2023-02-15T00:05:30;0.40;99.99
74081;SHT31;62438;52.228;6.864;2023-02-15T00:07:31;0.47;99.99
74081;SHT31;62438;52.228;6.864;2023-02-15T00:09:31;0.43;99.99
74081;SHT31;62438;52.228;6.864;2023-02-15T00:11:31;0.51;99.99
74081;SHT31;62438;52.228;6.864;2023-02-15T00:13:42;0.57;99.99
74081;SHT31;62438;52.228;6.864;2023-02-15T00:15:43;0.54;99.99
74081;SHT31;62438;52.228;6.864;2023-02-15T00:17:43;0.43;99.99
74081;SHT31;62438;52.228;6.864;2023-02-15T00:19:44;0.36;99.99
74081;SHT31;62438;52.228;6.864;2023-02-15T00:21:47;0.40;99.99
74081;SHT31;62438;52.228;6.864;2023-02-15T00:23:48;0.43;99.99
74081;SHT31;62438;52.228;6.864;2023-02-15T00:25:49;0.39;99.99
74081;SHT31;62438;52.228;6.864;2023-02-15T00:27:50;0.31;99.99
74081;SHT31;62438;52.228;6.864;2023-02-15T00:29:50;0.30;99.99
74081;SHT31;62438;52.228;6.864;2023-02-15T00:31:51;0.33;99.99
74081;SHT31;62438;52.228;6.864;2023-02-15T00:33:52;0.39;99.99
74081;SHT31;62438;52.228;6.864;2023-02-15T00:35:56;0.36;99.99
74081;SHT31;62438;52.228;6.864;2023-02-15T00:37:57;0.33;99.99
74081;SHT31;62438;52.228;6.864;2023-02-15T00:39:57;0.39;99.99
74081;SHT31;62438;52.228;6.864;2023-02-15T00:41:58;0.51;99.99
74081;SHT31;62438;52.228;6.864;2023-02-15T00:43:58;0.44;99.99
74081;SHT31;62438;52.228;6.864;2023-02-15T00:45:59;0.33;99.99
74081;SHT31;62438;52.228;6.864;2023-02-15T00:48:00;0.27;99.99
74081;SHT31;62438;52.228;6.864;2023-02-15T00:50:00;0.26;99.99
74081;SHT31;62438;52.228;6.864;2023-02-15T00:52:03;0.21;99.99
74081;SHT31;62438;52.228;6.864;2023-02-15T00:54:03;0.23;99.99
74081;SHT31;62438;52.228;6.864;2023-02-15T00:56:04;0.34;99.99
74081;SHT31;62438;52.228;6.864;2023-02-15T00:58:04;0.30;99.99
74081;SHT31;62438;52.228;6.864;2023-02-15T01:00:05;0.19;99.99
74081;SHT31;62438;52.228;6.864;2023-02-15T01:02:06;0.16;99.99
74081;SHT31;62438;52.228;6.864;2023-02-15T01:04:06;0.14;99.99
74081;SHT31;62438;52.228;6.864;2023-02-15T01:06:07;0.11;99.99
74081;SHT31;62438;52.228;6.864;2023-02-15T01:08:07;0.09;99.99
74081;SHT31;62438;52.228;6.864;2023-02-15T01:10:08;0.09;99.99
74081;SHT31;62438;52.228;6.864;2023-02-15T01:12:09;0.06;99.99
74081;SHT31;62438;52.228;6.864;2023-02-15T01:14:09;0.10;99.99
74081;SHT31;62438;52.228;6.864;2023-02-15T01:16:09;0.16;99.99
74081;SHT31;62438;52.228;6.864;2023-02-15T01:18:11;0.11;99.99
74081;SHT31;62438;52.228;6.864;2023-02-15T01:20:11;0.13;99.99
74081;SHT31;62438;52.228;6.864;2023-02-15T01:22:12;0.11;99.99
74081;SHT31;62438;52.228;6.864;2023-02-15T01:24:13;0.02;99.99
74081;SHT31;62438;52.228;6.864;2023-02-15T01:26:14;-0.05;99.99
74081;SHT31;62438;52.228;6.864;2023-02-15T01:28:15;-0.10;99.99
74081;SHT31;62438;52.228;6.864;2023-02-15T01:30:15;-0.05;99.99
74081;SHT31;62438;52.228;6.864;2023-02-15T01:32:16;-0.05;99.99
74081;SHT31;62438;52.228;6.864;2023-02-15T01:34:16;-0.08;99.99
74081;SHT31;62438;52.228;6.864;2023-02-15T01:36:16;-0.15;99.99
74081;SHT31;62438;52.228;6.864;2023-02-15T01:38:17;-0.02;99.99
74081;SHT31;62438;52.228;6.864;2023-02-15T01:40:18;-0.10;99.99
74081;SHT31;62438;52.228;6.864;2023-02-15T01:42:23;-0.11;99.99
74081;SHT31;62438;52.228;6.864;2023-02-15T01:46:50;-0.15;99.99
74081;SHT31;62438;52.228;6.864;2023-02-15T01:49:02;-0.19;99.99
74081;SHT31;62438;52.228;6.864;2023-02-15T01:51:03;-0.10;99.99
74081;SHT31;62438;52.228;6.864;2023-02-15T01:53:11;-0.21;99.99
74081;SHT31;62438;52.228;6.864;2023-02-15T01:55:14;-0.22;99.99
74081;SHT31;62438;52.228;6.864;2023-02-15T01:57:18;-0.22;99.99
74081;SHT31;62438;52.228;6.864;2023-02-15T01:59:21;-0.26;99.99
74081;SHT31;62438;52.228;6.864;2023-02-15T02:01:24;-0.28;99.99
74081;SHT31;62438;52.228;6.864;2023-02-15T02:05:50;-0.31;99.99
74081;SHT31;62438;52.228;6.864;2023-02-15T02:07:52;-0.29;99.99
74081;SHT31;62438;52.228;6.864;2023-02-15T02:09:54;-0.31;99.99
74081;SHT31;62438;52.228;6.864;2023-02-15T02:11:54;-0.19;99.99
74081;SHT31;62438;52.228;6.864;2023-02-15T02:13:55;-0.17;99.99
74081;SHT31;62438;52.228;6.864;2023-02-15T02:19:04;-0.25;99.99
74081;SHT31;62438;52.228;6.864;2023-02-15T02:28:13;-0.36;99.99
74081;SHT31;62438;52.228;6.864;2023-02-15T02:33:06;-0.35;99.99
74081;SHT31;62438;52.228;6.864;2023-02-15T02:40:03;-0.36;99.99
74081;SHT31;62438;52.228;6.864;2023-02-15T02:42:18;-0.43;99.99
74081;SHT31;62438;52.228;6.864;2023-02-15T02:44:40;-0.46;99.99
74081;SHT31;62438;52.228;6.864;2023-02-15T02:46:59;-0.46;99.99
74081;SHT31;62438;52.228;6.864;2023-02-15T02:49:01;-0.49;99.99
74081;SHT31;62438;52.228;6.864;2023-02-15T02:51:01;-0.52;99.99
74081;SHT31;62438;52.228;6.864;2023-02-15T02:53:02;-0.45;99.99
74081;SHT31;62438;52.228;6.864;2023-02-15T02:55:05;-0.50;99.99
74081;SHT31;62438;52.228;6.864;2023-02-15T02:57:08;-0.49;99.99
74081;SHT31;62438;52.228;6.864;2023-02-15T02:59:14;-0.53;99.99
74081;SHT31;62438;52.228;6.864;2023-02-15T03:01:39;-0.55;99.99
74081;SHT31;62438;52.228;6.864;2023-02-15T03:03:44;-0.55;99.99
74081;SHT31;62438;52.228;6.864;2023-02-15T03:05:47;-0.52;99.99
74081;SHT31;62438;52.228;6.864;2023-02-15T03:07:51;-0.49;99.99
74081;SHT31;62438;52.228;6.864;2023-02-15T03:09:53;-0.45;99.99
74081;SHT31;62438;52.228;6.864;2023-02-15T03:11:55;-0.46;99.99
74081;SHT31;62438;52.228;6.864;2023-02-15T03:13:56;-0.33;99.99
74081;SHT31;62438;52.228;6.864;2023-02-15T03:15:57;-0.26;99.99
74081;SHT31;62438;52.228;6.864;2023-02-15T03:18:21;-0.35;99.99
74081;SHT31;62438;52.228;6.864;2023-02-15T03:20:26;-0.46;99.99
74081;SHT31;62438;52.228;6.864;2023-02-15T03:22:32;-0.52;99.99
74081;SHT31;62438;52.228;6.864;2023-02-15T03:24:42;-0.50;99.99
74081;SHT31;62438;52.228;6.864;2023-02-15T03:26:49;-0.56;99.99
74081;SHT31;62438;52.228;6.864;2023-02-15T03:28:53;-0.55;99.99
74081;SHT31;62438;52.228;6.864;2023-02-15T03:30:58;-0.58;99.99
74081;SHT31;62438;52.228;6.864;2023-02-15T03:33:00;-0.63;99.99
74081;SHT31;62438;52.228;6.864;2023-02-15T03:35:03;-0.60;99.99
74081;SHT31;62438;52.228;6.864;2023-02-15T03:37:15;-0.65;99.99
74081;SHT31;62438;52.228;6.864;2023-02-15T03:39:35;-0.60;99.99
74081;SHT31;62438;52.228;6.864;2023-02-15T03:41:42;-0.69;99.99
74081;SHT31;62438;52.228;6.864;2023-02-15T03:43:55;-0.68;99.99
74081;SHT31;62438;52.228;6.864;2023-02-15T03:45:59;-0.66;99.99
74081;SHT31;62438;52.228;6.864;2023-02-15T03:48:02;-0.60;99.99
74081;SHT31;62438;52.228;6.864;2023-02-15T03:50:27;-0.63;99.99
74081;SHT31;62438;52.228;6.864;2023-02-15T03:52:48;-0.68;99.99
74081;SHT31;62438;52.228;6.864;2023-02-15T03:54:49;-0.70;99.99
74081;SHT31;62438;52.228;6.864;2023-02-15T03:56:50;-0.69;99.99
74081;SHT31;62438;52.228;6.864;2023-02-15T03:59:10;-0.69;99.99
74081;SHT31;62438;52.228;6.864;2023-02-15T04:01:36;-0.70;99.99
74081;SHT31;62438;52.228;6.864;2023-02-15T04:04:05;-0.73;99.99
74081;SHT31;62438;52.228;6.864;2023-02-15T04:06:07;-0.70;99.99
74081;SHT31;62438;52.228;6.864;2023-02-15T04:08:08;-0.77;99.99
74081;SHT31;62438;52.228;6.864;2023-02-15T04:10:09;-0.74;99.99
74081;SHT31;62438;52.228;6.864;2023-02-15T04:12:28;-0.77;99.99
74081;SHT31;62438;52.228;6.864;2023-02-15T04:14:28;-0.80;99.99
74081;SHT31;62438;52.228;6.864;2023-02-15T04:16:47;-0.84;99.99
74081;SHT31;62438;52.228;6.864;2023-02-15T04:18:47;-0.90;99.99
74081;SHT31;62438;52.228;6.864;2023-02-15T04:21:06;-0.86;99.99
74081;SHT31;62438;52.228;6.864;2023-02-15T04:23:25;-0.86;99.99
74081;SHT31;62438;52.228;6.864;2023-02-15T04:25:44;-0.83;99.99
74081;SHT31;62438;52.228;6.864;2023-02-15T04:27:48;-0.83;99.99
74081;SHT31;62438;52.228;6.864;2023-02-15T04:29:49;-0.86;99.99
74081;SHT31;62438;52.228;6.864;2023-02-15T04:31:50;-0.84;99.99
74081;SHT31;62438;52.228;6.864;2023-02-15T04:33:51;-0.86;99.99
74081;SHT31;62438;52.228;6.864;2023-02-15T04:35:51;-0.90;99.99
74081;SHT31;62438;52.228;6.864;2023-02-15T04:37:52;-0.91;99.99
74081;SHT31;62438;52.228;6.864;2023-02-15T04:39:53;-0.91;99.99
74081;SHT31;62438;52.228;6.864;2023-02-15T04:41:53;-0.91;99.99
74081;SHT31;62438;52.228;6.864;2023-02-15T04:43:54;-0.89;99.99
74081;SHT31;62438;52.228;6.864;2023-02-15T04:45:54;-0.87;99.99
74081;SHT31;62438;52.228;6.864;2023-02-15T04:47:55;-0.86;99.99
74081;SHT31;62438;52.228;6.864;2023-02-15T04:49:55;-0.90;99.99
74081;SHT31;62438;52.228;6.864;2023-02-15T04:51:56;-0.86;99.99
74081;SHT31;62438;52.228;6.864;2023-02-15T04:53:56;-0.87;99.99
74081;SHT31;62438;52.228;6.864;2023-02-15T04:55:57;-0.84;99.99
74081;SHT31;62438;52.228;6.864;2023-02-15T04:57:57;-0.90;99.99
74081;SHT31;62438;52.228;6.864;2023-02-15T04:59:57;-0.89;99.99
74081;SHT31;62438;52.228;6.864;2023-02-15T05:01:59;-0.84;99.99
74081;SHT31;62438;52.228;6.864;2023-02-15T05:03:59;-0.86;99.99
74081;SHT31;62438;52.228;6.864;2023-02-15T05:06:00;-0.81;99.99
74081;SHT31;62438;52.228;6.864;2023-02-15T05:08:00;-0.80;99.99
74081;SHT31;62438;52.228;6.864;2023-02-15T05:10:01;-0.80;99.99
74081;SHT31;62438;52.228;6.864;2023-02-15T05:12:01;-0.81;99.99
74081;SHT31;62438;52.228;6.864;2023-02-15T05:14:02;-0.74;99.99
74081;SHT31;62438;52.228;6.864;2023-02-15T05:16:02;-0.74;99.99
74081;SHT31;62438;52.228;6.864;2023-02-15T05:18:03;-0.73;99.99
74081;SHT31;62438;52.228;6.864;2023-02-15T05:20:04;-0.72;99.99
74081;SHT31;62438;52.228;6.864;2023-02-15T05:22:04;-0.65;99.99
74081;SHT31;62438;52.228;6.864;2023-02-15T05:24:05;-0.65;99.99
74081;SHT31;62438;52.228;6.864;2023-02-15T05:26:25;-0.62;99.99
74081;SHT31;62438;52.228;6.864;2023-02-15T05:28:44;-0.53;99.99
74081;SHT31;62438;52.228;6.864;2023-02-15T05:30:48;-0.29;99.99
74081;SHT31;62438;52.228;6.864;2023-02-15T05:32:49;-0.19;99.99
74081;SHT31;62438;52.228;6.864;2023-02-15T05:34:49;-0.12;99.99
74081;SHT31;62438;52.228;6.864;2023-02-15T05:36:50;-0.05;99.99
74081;SHT31;62438;52.228;6.864;2023-02-15T05:38:50;-0.11;99.99
74081;SHT31;62438;52.228;6.864;2023-02-15T05:40:51;-0.19;99.99
74081;SHT31;62438;52.228;6.864;2023-02-15T05:42:52;-0.11;99.99
74081;SHT31;62438;52.228;6.864;2023-02-15T05:44:52;-0.05;99.99
74081;SHT31;62438;52.228;6.864;2023-02-15T05:46:52;-0.12;99.99
74081;SHT31;62438;52.228;6.864;2023-02-15T05:48:53;-0.11;99.99
74081;SHT31;62438;52.228;6.864;2023-02-15T05:51:11;-0.21;99.99
74081;SHT31;62438;52.228;6.864;2023-02-15T05:53:16;-0.23;99.99
74081;SHT31;62438;52.228;6.864;2023-02-15T05:55:16;-0.25;99.99
74081;SHT31;62438;52.228;6.864;2023-02-15T05:57:16;-0.33;99.99
74081;SHT31;62438;52.228;6.864;2023-02-15T05:59:17;-0.32;99.99
74081;SHT31;62438;52.228;6.864;2023-02-15T06:01:18;-0.32;99.99
74081;SHT31;62438;52.228;6.864;2023-02-15T06:03:22;-0.43;99.99
74081;SHT31;62438;52.228;6.864;2023-02-15T06:05:23;-0.42;99.99
74081;SHT31;62438;52.228;6.864;2023-02-15T06:07:24;-0.46;99.99
74081;SHT31;62438;52.228;6.864;2023-02-15T06:09:24;-0.48;99.99
74081;SHT31;62438;52.228;6.864;2023-02-15T06:11:24;-0.45;99.99
74081;SHT31;62438;52.228;6.864;2023-02-15T06:13:25;-0.45;99.99
74081;SHT31;62438;52.228;6.864;2023-02-15T06:15:25;-0.49;99.99
74081;SHT31;62438;52.228;6.864;2023-02-15T06:17:26;-0.48;99.99
74081;SHT31;62438;52.228;6.864;2023-02-15T06:19:26;-0.46;99.99
74081;SHT31;62438;52.228;6.864;2023-02-15T06:21:27;-0.35;99.99
74081;SHT31;62438;52.228;6.864;2023-02-15T06:23:28;-0.33;99.99
74081;SHT31;62438;52.228;6.864;2023-02-15T06:25:28;-0.23;99.99
74081;SHT31;62438;52.228;6.864;2023-02-15T06:27:29;-0.31;99.99
74081;SHT31;62438;52.228;6.864;2023-02-15T06:29:29;-0.39;99.99
74081;SHT31;62438;52.228;6.864;2023-02-15T06:31:30;-0.35;99.99
74081;SHT31;62438;52.228;6.864;2023-02-15T06:33:30;-0.35;99.99
74081;SHT31;62438;52.228;6.864;2023-02-15T06:35:30;-0.33;99.99
74081;SHT31;62438;52.228;6.864;2023-02-15T06:37:31;-0.38;99.99
74081;SHT31;62438;52.228;6.864;2023-02-15T06:39:32;-0.39;99.99
74081;SHT31;62438;52.228;6.864;2023-02-15T06:41:32;-0.31;99.99
74081;SHT31;62438;52.228;6.864;2023-02-15T06:43:33;-0.21;99.99
74081;SHT31;62438;52.228;6.864;2023-02-15T06:45:34;-0.10;99.99
74081;SHT31;62438;52.228;6.864;2023-02-15T06:47:34;-0.12;99.99
74081;SHT31;62438;52.228;6.864;2023-02-15T06:49:35;-0.08;99.99
74081;SHT31;62438;52.228;6.864;2023-02-15T06:51:35;0.05;99.99
74081;SHT31;62438;52.228;6.864;2023-02-15T06:53:35;0.06;99.99
74081;SHT31;62438;52.228;6.864;2023-02-15T06:55:36;-0.01;99.99
74081;SHT31;62438;52.228;6.864;2023-02-15T06:57:36;0.02;99.99
74081;SHT31;62438;52.228;6.864;2023-02-15T06:59:37;0.00;99.99
74081;SHT31;62438;52.228;6.864;2023-02-15T07:01:37;0.02;99.99
74081;SHT31;62438;52.228;6.864;2023-02-15T07:03:38;0.02;99.99
74081;SHT31;62438;52.228;6.864;2023-02-15T07:05:38;0.10;99.99
74081;SHT31;62438;52.228;6.864;2023-02-15T07:07:38;0.14;99.99
74081;SHT31;62438;52.228;6.864;2023-02-15T07:09:39;0.20;99.99
74081;SHT31;62438;52.228;6.864;2023-02-15T07:11:39;0.36;99.99
74081;SHT31;62438;52.228;6.864;2023-02-15T07:13:58;0.40;99.99
74081;SHT31;62438;52.228;6.864;2023-02-15T07:15:58;0.46;99.99
74081;SHT31;62438;52.228;6.864;2023-02-15T07:17:59;0.36;99.99
74081;SHT31;62438;52.228;6.864;2023-02-15T07:19:59;0.41;99.99
74081;SHT31;62438;52.228;6.864;2023-02-15T07:21:59;0.46;99.99
74081;SHT31;62438;52.228;6.864;2023-02-15T07:24:00;0.46;99.99
74081;SHT31;62438;52.228;6.864;2023-02-15T07:26:01;0.51;99.99
74081;SHT31;62438;52.228;6.864;2023-02-15T07:28:03;0.58;99.99
74081;SHT31;62438;52.228;6.864;2023-02-15T07:30:06;0.69;99.99
74081;SHT31;62438;52.228;6.864;2023-02-15T07:32:07;0.81;99.99
74081;SHT31;62438;52.228;6.864;2023-02-15T07:34:07;0.75;99.99
74081;SHT31;62438;52.228;6.864;2023-02-15T07:36:08;0.74;99.99
74081;SHT31;62438;52.228;6.864;2023-02-15T07:38:12;0.93;99.99
74081;SHT31;62438;52.228;6.864;2023-02-15T07:40:12;0.99;99.99
74081;SHT31;62438;52.228;6.864;2023-02-15T07:42:13;1.08;99.99
74081;SHT31;62438;52.228;6.864;2023-02-15T07:44:14;1.12;99.99
74081;SHT31;62438;52.228;6.864;2023-02-15T07:46:16;1.33;99.99
74081;SHT31;62438;52.228;6.864;2023-02-15T07:48:17;1.37;99.99
74081;SHT31;62438;52.228;6.864;2023-02-15T07:50:17;1.54;99.99
74081;SHT31;62438;52.228;6.864;2023-02-15T07:52:18;1.58;99.99
74081;SHT31;62438;52.228;6.864;2023-02-15T07:54:20;1.64;99.99
74081;SHT31;62438;52.228;6.864;2023-02-15T07:56:20;1.78;99.99
74081;SHT31;62438;52.228;6.864;2023-02-15T07:58:21;1.94;99.99
74081;SHT31;62438;52.228;6.864;2023-02-15T08:00:42;2.04;99.99
74081;SHT31;62438;52.228;6.864;2023-02-15T08:02:58;2.08;99.99
74081;SHT31;62438;52.228;6.864;2023-02-15T08:05:13;2.19;99.99
74081;SHT31;62438;52.228;6.864;2023-02-15T08:07:14;2.28;99.65
74081;SHT31;62438;52.228;6.864;2023-02-15T08:09:15;2.52;99.38
74081;SHT31;62438;52.228;6.864;2023-02-15T08:11:19;2.88;98.08
74081;SHT31;62438;52.228;6.864;2023-02-15T08:13:26;3.18;96.64
74081;SHT31;62438;52.228;6.864;2023-02-15T08:15:27;3.38;95.91
74081;SHT31;62438;52.228;6.864;2023-02-15T08:17:28;3.55;95.98
74081;SHT31;62438;52.228;6.864;2023-02-15T08:19:30;3.59;94.57
74081;SHT31;62438;52.228;6.864;2023-02-15T08:21:32;3.67;94.64
74081;SHT31;62438;52.228;6.864;2023-02-15T08:23:33;3.72;94.63
74081;SHT31;62438;52.228;6.864;2023-02-15T08:25:34;3.83;94.02
74081;SHT31;62438;52.228;6.864;2023-02-15T08:27:34;3.89;93.60
74081;SHT31;62438;52.228;6.864;2023-02-15T08:29:36;3.84;93.65
74081;SHT31;62438;52.228;6.864;2023-02-15T08:31:38;3.77;94.25
74081;SHT31;62438;52.228;6.864;2023-02-15T08:33:42;3.86;94.36
74081;SHT31;62438;52.228;6.864;2023-02-15T08:35:43;3.97;94.04
74081;SHT31;62438;52.228;6.864;2023-02-15T08:37:43;4.08;93.71
74081;SHT31;62438;52.228;6.864;2023-02-15T08:39:45;4.24;93.34
74081;SHT31;62438;52.228;6.864;2023-02-15T08:41:47;4.42;91.85
74081;SHT31;62438;52.228;6.864;2023-02-15T08:43:49;4.44;91.37
74081;SHT31;62438;52.228;6.864;2023-02-15T08:45:51;4.53;91.43
74081;SHT31;62438;52.228;6.864;2023-02-15T08:47:51;4.53;90.98
74081;SHT31;62438;52.228;6.864;2023-02-15T08:49:52;4.69;90.99
74081;SHT31;62438;52.228;6.864;2023-02-15T08:51:53;4.83;89.43
74081;SHT31;62438;52.228;6.864;2023-02-15T08:53:55;4.94;89.41
74081;SHT31;62438;52.228;6.864;2023-02-15T08:55:56;5.11;89.22
74081;SHT31;62438;52.228;6.864;2023-02-15T08:57:57;5.16;88.06
74081;SHT31;62438;52.228;6.864;2023-02-15T08:59:58;5.26;88.64
74081;SHT31;62438;52.228;6.864;2023-02-15T09:01:58;5.27;87.78
74081;SHT31;62438;52.228;6.864;2023-02-15T09:04:02;5.40;87.84
74081;SHT31;62438;52.228;6.864;2023-02-15T09:06:04;5.32;87.78
74081;SHT31;62438;52.228;6.864;2023-02-15T09:08:05;5.35;88.07
74081;SHT31;62438;52.228;6.864;2023-02-15T09:10:06;5.32;87.55
74081;SHT31;62438;52.228;6.864;2023-02-15T09:12:06;5.41;86.78
74081;SHT31;62438;52.228;6.864;2023-02-15T09:14:09;5.54;87.04
74081;SHT31;62438;52.228;6.864;2023-02-15T09:16:10;5.76;85.95
74081;SHT31;62438;52.228;6.864;2023-02-15T09:18:10;5.96;85.32
74081;SHT31;62438;52.228;6.864;2023-02-15T09:20:12;5.96;85.56
74081;SHT31;62438;52.228;6.864;2023-02-15T09:22:12;5.98;86.36
74081;SHT31;62438;52.228;6.864;2023-02-15T09:24:14;6.00;85.21
74081;SHT31;62438;52.228;6.864;2023-02-15T09:26:18;6.03;84.11
74081;SHT31;62438;52.228;6.864;2023-02-15T09:28:19;6.00;84.49
74081;SHT31;62438;52.228;6.864;2023-02-15T09:30:19;6.03;85.25
74081;SHT31;62438;52.228;6.864;2023-02-15T09:32:20;6.07;84.59
74081;SHT31;62438;52.228;6.864;2023-02-15T09:34:22;6.05;84.53
74081;SHT31;62438;52.228;6.864;2023-02-15T09:36:24;5.95;84.56
74081;SHT31;62438;52.228;6.864;2023-02-15T09:38:25;6.03;84.57
74081;SHT31;62438;52.228;6.864;2023-02-15T09:40:26;6.07;83.77
74081;SHT31;62438;52.228;6.864;2023-02-15T09:45:16;6.40;84.69
74081;SHT31;62438;52.228;6.864;2023-02-15T09:54:32;6.61;82.98
74081;SHT31;62438;52.228;6.864;2023-02-15T09:56:45;6.77;82.97
74081;SHT31;62438;52.228;6.864;2023-02-15T10:05:38;7.34;80.61
74081;SHT31;62438;52.228;6.864;2023-02-15T10:08:14;7.53;80.09
74081;SHT31;62438;52.228;6.864;2023-02-15T10:19:49;7.84;78.25
74081;SHT31;62438;52.228;6.864;2023-02-15T10:26:46;8.43;77.00
74081;SHT31;62438;52.228;6.864;2023-02-15T10:28:53;8.53;75.62
74081;SHT31;62438;52.228;6.864;2023-02-15T10:31:09;8.60;75.48
74081;SHT31;62438;52.228;6.864;2023-02-15T10:38:10;8.78;74.71
74081;SHT31;62438;52.228;6.864;2023-02-15T10:40:37;9.08;74.37
74081;SHT31;62438;52.228;6.864;2023-02-15T10:54:28;10.05;71.63
74081;SHT31;62438;52.228;6.864;2023-02-15T11:01:37;10.39;70.20
74081;SHT31;62438;52.228;6.864;2023-02-15T11:04:00;10.56;69.71
74081;SHT31;62438;52.228;6.864;2023-02-15T11:06:13;10.32;69.79
74081;SHT31;62438;52.228;6.864;2023-02-15T11:08:15;10.68;69.50
74081;SHT31;62438;52.228;6.864;2023-02-15T11:12:36;10.72;69.96
74081;SHT31;62438;52.228;6.864;2023-02-15T11:14:43;10.65;69.05
74081;SHT31;62438;52.228;6.864;2023-02-15T11:16:50;10.80;68.47
74081;SHT31;62438;52.228;6.864;2023-02-15T11:18:56;10.77;69.21
74081;SHT31;62438;52.228;6.864;2023-02-15T11:21:07;10.83;68.54
74081;SHT31;62438;52.228;6.864;2023-02-15T11:23:15;10.79;67.41
74081;SHT31;62438;52.228;6.864;2023-02-15T11:25:24;11.04;68.14
74081;SHT31;62438;52.228;6.864;2023-02-15T11:27:29;11.07;68.19
74081;SHT31;62438;52.228;6.864;2023-02-15T11:29:38;11.31;66.98
74081;SHT31;62438;52.228;6.864;2023-02-15T11:31:45;11.44;66.03
74081;SHT31;62438;52.228;6.864;2023-02-15T11:33:50;11.76;65.86
74081;SHT31;62438;52.228;6.864;2023-02-15T11:36:20;11.72;64.88
74081;SHT31;62438;52.228;6.864;2023-02-15T11:38:24;11.89;64.35
74081;SHT31;62438;52.228;6.864;2023-02-15T11:40:48;11.41;64.87
74081;SHT31;62438;52.228;6.864;2023-02-15T11:42:51;11.48;65.48
74081;SHT31;62438;52.228;6.864;2023-02-15T11:44:56;11.32;65.07
74081;SHT31;62438;52.228;6.864;2023-02-15T11:46:59;11.35;66.77
74081;SHT31;62438;52.228;6.864;2023-02-15T11:49:01;11.44;66.24
74081;SHT31;62438;52.228;6.864;2023-02-15T11:51:03;11.42;65.35
74081;SHT31;62438;52.228;6.864;2023-02-15T11:53:16;11.35;65.62
74081;SHT31;62438;52.228;6.864;2023-02-15T11:55:21;11.35;66.74
74081;SHT31;62438;52.228;6.864;2023-02-15T11:57:32;11.34;65.63
74081;SHT31;62438;52.228;6.864;2023-02-15T11:59:36;11.55;66.53
74081;SHT31;62438;52.228;6.864;2023-02-15T12:01:45;11.64;65.30
74081;SHT31;62438;52.228;6.864;2023-02-15T12:05:53;11.71;65.40
74081;SHT31;62438;52.228;6.864;2023-02-15T12:08:01;11.64;65.24
74081;SHT31;62438;52.228;6.864;2023-02-15T12:10:17;11.51;65.90
74081;SHT31;62438;52.228;6.864;2023-02-15T12:14:23;11.68;66.07
74081;SHT31;62438;52.228;6.864;2023-02-15T12:16:24;11.75;64.98
74081;SHT31;62438;52.228;6.864;2023-02-15T12:18:35;11.69;65.89
74081;SHT31;62438;52.228;6.864;2023-02-15T12:20:37;11.81;65.99
74081;SHT31;62438;52.228;6.864;2023-02-15T12:22:37;11.86;66.84
74081;SHT31;62438;52.228;6.864;2023-02-15T12:24:45;11.96;66.23
74081;SHT31;62438;52.228;6.864;2023-02-15T12:26:57;11.93;65.33
74081;SHT31;62438;52.228;6.864;2023-02-15T12:29:00;12.05;65.13
74081;SHT31;62438;52.228;6.864;2023-02-15T12:31:07;11.82;65.47
74081;SHT31;62438;52.228;6.864;2023-02-15T12:33:22;11.89;64.87
74081;SHT31;62438;52.228;6.864;2023-02-15T12:35:33;11.83;64.94
74081;SHT31;62438;52.228;6.864;2023-02-15T12:37:34;11.88;64.58
74081;SHT31;62438;52.228;6.864;2023-02-15T12:39:36;11.96;63.85
74081;SHT31;62438;52.228;6.864;2023-02-15T12:41:36;11.93;65.37
74081;SHT31;62438;52.228;6.864;2023-02-15T12:43:37;11.96;64.37
74081;SHT31;62438;52.228;6.864;2023-02-15T12:45:38;12.09;64.50
74081;SHT31;62438;52.228;6.864;2023-02-15T12:47:38;11.86;64.95
74081;SHT31;62438;52.228;6.864;2023-02-15T12:49:39;11.79;63.98
74081;SHT31;62438;52.228;6.864;2023-02-15T12:51:54;11.75;65.28
74081;SHT31;62438;52.228;6.864;2023-02-15T12:53:55;11.96;64.39
74081;SHT31;62438;52.228;6.864;2023-02-15T12:55:57;12.00;64.19
74081;SHT31;62438;52.228;6.864;2023-02-15T12:58:18;11.85;64.44
74081;SHT31;62438;52.228;6.864;2023-02-15T13:02:23;11.64;64.77
74081;SHT31;62438;52.228;6.864;2023-02-15T13:04:28;11.58;65.15
74081;SHT31;62438;52.228;6.864;2023-02-15T13:06:32;11.57;65.33
74081;SHT31;62438;52.228;6.864;2023-02-15T13:08:35;11.59;64.90
74081;SHT31;62438;52.228;6.864;2023-02-15T13:10:41;11.69;64.80
74081;SHT31;62438;52.228;6.864;2023-02-15T13:12:46;11.83;63.80
74081;SHT31;62438;52.228;6.864;2023-02-15T13:14:49;11.97;63.58
74081;SHT31;62438;52.228;6.864;2023-02-15T13:16:57;11.97;63.64
74081;SHT31;62438;52.228;6.864;2023-02-15T13:19:03;12.16;63.18
74081;SHT31;62438;52.228;6.864;2023-02-15T13:21:15;12.16;62.74
74081;SHT31;62438;52.228;6.864;2023-02-15T13:23:35;12.17;62.26
74081;SHT31;62438;52.228;6.864;2023-02-15T13:25:46;12.17;63.38
74081;SHT31;62438;52.228;6.864;2023-02-15T13:27:55;12.09;62.46
74081;SHT31;62438;52.228;6.864;2023-02-15T13:29:59;12.03;63.72
74081;SHT31;62438;52.228;6.864;2023-02-15T13:32:28;12.02;63.82
74081;SHT31;62438;52.228;6.864;2023-02-15T13:34:35;12.13;63.68
74081;SHT31;62438;52.228;6.864;2023-02-15T13:36:54;12.23;63.26
74081;SHT31;62438;52.228;6.864;2023-02-15T13:41:19;12.16;60.92
74081;SHT31;62438;52.228;6.864;2023-02-15T13:45:38;12.15;61.68
74081;SHT31;62438;52.228;6.864;2023-02-15T13:54:28;12.27;62.66
74081;SHT31;62438;52.228;6.864;2023-02-15T13:57:09;12.27;62.42
74081;SHT31;62438;52.228;6.864;2023-02-15T14:01:53;12.22;63.92
74081;SHT31;62438;52.228;6.864;2023-02-15T14:15:41;12.02;63.83
74081;SHT31;62438;52.228;6.864;2023-02-15T14:31:42;11.93;63.04
74081;SHT31;62438;52.228;6.864;2023-02-15T14:33:52;11.95;63.41
74081;SHT31;62438;52.228;6.864;2023-02-15T14:35:54;11.96;63.38
74081;SHT31;62438;52.228;6.864;2023-02-15T14:40:05;12.03;62.92
74081;SHT31;62438;52.228;6.864;2023-02-15T14:44:54;12.06;62.33
74081;SHT31;62438;52.228;6.864;2023-02-15T14:47:20;12.00;63.68
74081;SHT31;62438;52.228;6.864;2023-02-15T14:49:26;12.06;62.18
74081;SHT31;62438;52.228;6.864;2023-02-15T14:53:39;12.05;61.95
74081;SHT31;62438;52.228;6.864;2023-02-15T14:55:42;12.02;62.32
74081;SHT31;62438;52.228;6.864;2023-02-15T14:57:56;11.99;62.19
74081;SHT31;62438;52.228;6.864;2023-02-15T14:59:57;11.93;62.82
74081;SHT31;62438;52.228;6.864;2023-02-15T15:02:08;11.90;63.25
74081;SHT31;62438;52.228;6.864;2023-02-15T15:04:43;11.95;63.58
74081;SHT31;62438;52.228;6.864;2023-02-15T15:06:42;11.90;63.47
74081;SHT31;62438;52.228;6.864;2023-02-15T15:08:44;11.89;62.92
74081;SHT31;62438;52.228;6.864;2023-02-15T15:10:47;11.89;62.55
74081;SHT31;62438;52.228;6.864;2023-02-15T15:12:54;11.85;62.86
74081;SHT31;62438;52.228;6.864;2023-02-15T15:14:55;11.76;63.69
74081;SHT31;62438;52.228;6.864;2023-02-15T15:16:55;11.57;65.04
74081;SHT31;62438;52.228;6.864;2023-02-15T15:18:57;11.55;63.64
74081;SHT31;62438;52.228;6.864;2023-02-15T15:20:58;11.51;64.91
74081;SHT31;62438;52.228;6.864;2023-02-15T15:29:45;11.35;65.11